sensor_id;sensor_type;location;lat;lon;timestamp;temperature;humidity
6863;DHT22;3470;48.738;9.616;2022-12-07T00:01:29;2.70;99.90
6863;DHT22;3470;48.738;9.616;2022-12-07T00:03:57;2.70;99.90
6863;DHT22;3470;48.738;9.616;2022-12-07T00:06:29;2.70;99.90
6863;DHT22;3470;48.738;9.616;2022-12-07T00:08:54;2.70;99.90
6863;DHT22;3470;48.738;9.616;2022-12-07T00:11:21;2.70;99.90
6863;DHT22;3470;48.738;9.616;2022-12-07T00:13:51;2.70;99.90
6863;DHT22;3470;48.738;9.616;2022-12-07T00:16:18;2.80;99.90
6863;DHT22;3470;48.738;9.616;2022-12-07T00:18:45;2.80;99.90
6863;DHT22;3470;48.738;9.616;2022-12-07T00:21:16;2.80;99.90
6863;DHT22;3470;48.738;9.616;2022-12-07T00:23:43;2.90;99.90
6863;DHT22;3470;48.738;9.616;2022-12-07T00:26:17;2.90;99.90
6863;DHT22;3470;48.738;9.616;2022-12-07T00:28:50;2.90;99.90
6863;DHT22;3470;48.738;9.616;2022-12-07T00:31:18;3.00;99.90
6863;DHT22;3470;48.738;9.616;2022-12-07T00:33:44;3.00;99.90
6863;DHT22;3470;48.738;9.616;2022-12-07T00:36:13;2.90;99.90
6863;DHT22;3470;48.738;9.616;2022-12-07T00:38:39;2.90;99.90
6863;DHT22;3470;48.738;9.616;2022-12-07T00:41:17;2.90;99.90
6863;DHT22;3470;48.738;9.616;2022-12-07T00:43:43;2.90;99.90
6863;DHT22;3470;48.738;9.616;2022-12-07T00:46:10;2.90;99.90
6863;DHT22;3470;48.738;9.616;2022-12-07T00:48:36;2.90;99.90
6863;DHT22;3470;48.738;9.616;2022-12-07T00:51:02;2.90;99.90
6863;DHT22;3470;48.738;9.616;2022-12-07T00:53:28;2.80;99.90
6863;DHT22;3470;48.738;9.616;2022-12-07T00:55:54;2.90;99.90
6863;DHT22;3470;48.738;9.616;2022-12-07T00:58:21;2.80;99.90
6863;DHT22;3470;48.738;9.616;2022-12-07T01:00:46;2.80;99.90
6863;DHT22;3470;48.738;9.616;2022-12-07T01:03:13;2.80;99.90
6863;DHT22;3470;48.738;9.616;2022-12-07T01:05:40;2.80;99.90
6863;DHT22;3470;48.738;9.616;2022-12-07T01:08:06;2.90;99.90
6863;DHT22;3470;48.738;9.616;2022-12-07T01:10:32;2.90;99.90
6863;DHT22;3470;48.738;9.616;2022-12-07T01:12:58;2.90;99.90
6863;DHT22;3470;48.738;9.616;2022-12-07T01:15:24;3.00;99.90
6863;DHT22;3470;48.738;9.616;2022-12-07T01:17:50;2.90;99.90
6863;DHT22;3470;48.738;9.616;2022-12-07T01:20:16;2.90;99.90
6863;DHT22;3470;48.738;9.616;2022-12-07T01:22:42;3.00;99.90
6863;DHT22;3470;48.738;9.616;2022-12-07T01:25:10;3.00;99.90
6863;DHT22;3470;48.738;9.616;2022-12-07T01:27:36;3.00;99.90
6863;DHT22;3470;48.738;9.616;2022-12-07T01:30:04;3.10;99.90
6863;DHT22;3470;48.738;9.616;2022-12-07T01:32:30;3.10;99.90
6863;DHT22;3470;48.738;9.616;2022-12-07T01:34:56;3.00;99.90
6863;DHT22;3470;48.738;9.616;2022-12-07T01:37:21;3.10;99.90
6863;DHT22;3470;48.738;9.616;2022-12-07T01:39:51;3.00;99.90
6863;DHT22;3470;48.738;9.616;2022-12-07T01:42:17;3.00;99.90
6863;DHT22;3470;48.738;9.616;2022-12-07T01:47:53;3.10;99.90
6863;DHT22;3470;48.738;9.616;2022-12-07T01:50:21;3.10;99.90
6863;DHT22;3470;48.738;9.616;2022-12-07T01:52:51;3.10;99.90
6863;DHT22;3470;48.738;9.616;2022-12-07T01:55:19;3.10;99.90
6863;DHT22;3470;48.738;9.616;2022-12-07T01:57:49;3.00;99.90
6863;DHT22;3470;48.738;9.616;2022-12-07T02:00:16;3.00;99.90
6863;DHT22;3470;48.738;9.616;2022-12-07T02:02:53;3.00;99.90
6863;DHT22;3470;48.738;9.616;2022-12-07T02:05:19;3.00;99.90
6863;DHT22;3470;48.738;9.616;2022-12-07T02:07:47;3.00;99.90
6863;DHT22;3470;48.738;9.616;2022-12-07T02:12:45;2.90;99.90
6863;DHT22;3470;48.738;9.616;2022-12-07T02:15:12;2.90;99.90
6863;DHT22;3470;48.738;9.616;2022-12-07T02:17:54;2.80;99.90
6863;DHT22;3470;48.738;9.616;2022-12-07T02:20:30;2.80;99.90
6863;DHT22;3470;48.738;9.616;2022-12-07T02:28:50;2.70;99.90
6863;DHT22;3470;48.738;9.616;2022-12-07T02:31:20;2.70;99.90
6863;DHT22;3470;48.738;9.616;2022-12-07T02:33:54;2.60;99.90
6863;DHT22;3470;48.738;9.616;2022-12-07T02:36:28;2.60;99.90
6863;DHT22;3470;48.738;9.616;2022-12-07T02:39:17;2.60;99.90
6863;DHT22;3470;48.738;9.616;2022-12-07T02:41:47;2.60;99.90
6863;DHT22;3470;48.738;9.616;2022-12-07T02:44:18;2.60;99.90
6863;DHT22;3470;48.738;9.616;2022-12-07T02:46:51;2.60;99.90
6863;DHT22;3470;48.738;9.616;2022-12-07T02:49:18;2.60;99.90
6863;DHT22;3470;48.738;9.616;2022-12-07T02:51:46;2.60;99.90
6863;DHT22;3470;48.738;9.616;2022-12-07T02:54:16;2.50;99.90
6863;DHT22;3470;48.738;9.616;2022-12-07T03:05:23;2.40;99.90
6863;DHT22;3470;48.738;9.616;2022-12-07T03:08:00;2.40;99.90
6863;DHT22;3470;48.738;9.616;2022-12-07T03:10:49;2.30;99.90
6863;DHT22;3470;48.738;9.616;2022-12-07T03:18:50;2.20;99.90
6863;DHT22;3470;48.738;9.616;2022-12-07T03:21:20;2.20;99.90
6863;DHT22;3470;48.738;9.616;2022-12-07T03:23:52;2.10;99.90
6863;DHT22;3470;48.738;9.616;2022-12-07T03:26:20;2.10;99.90
6863;DHT22;3470;48.738;9.616;2022-12-07T03:28:51;2.10;99.90
6863;DHT22;3470;48.738;9.616;2022-12-07T03:31:40;2.10;99.90
6863;DHT22;3470;48.738;9.616;2022-12-07T03:34:33;2.10;99.90
6863;DHT22;3470;48.738;9.616;2022-12-07T03:37:07;2.10;99.90
6863;DHT22;3470;48.738;9.616;2022-12-07T03:39:38;2.10;99.90
6863;DHT22;3470;48.738;9.616;2022-12-07T03:42:06;2.10;99.90
6863;DHT22;3470;48.738;9.616;2022-12-07T03:44:33;2.10;99.90
6863;DHT22;3470;48.738;9.616;2022-12-07T03:47:24;2.10;99.90
6863;DHT22;3470;48.738;9.616;2022-12-07T03:55:17;2.20;99.90
6863;DHT22;3470;48.738;9.616;2022-12-07T03:57:47;2.20;99.90
6863;DHT22;3470;48.738;9.616;2022-12-07T04:00:14;2.20;99.90
6863;DHT22;3470;48.738;9.616;2022-12-07T04:02:41;2.20;99.90
6863;DHT22;3470;48.738;9.616;2022-12-07T04:05:07;2.10;99.90
6863;DHT22;3470;48.738;9.616;2022-12-07T04:07:33;2.10;99.90
6863;DHT22;3470;48.738;9.616;2022-12-07T04:09:59;2.10;99.90
6863;DHT22;3470;48.738;9.616;2022-12-07T04:12:24;2.00;99.90
6863;DHT22;3470;48.738;9.616;2022-12-07T04:14:50;2.00;99.90
6863;DHT22;3470;48.738;9.616;2022-12-07T04:17:16;2.00;99.90
6863;DHT22;3470;48.738;9.616;2022-12-07T04:19:41;2.00;99.90
6863;DHT22;3470;48.738;9.616;2022-12-07T04:22:07;2.00;99.90
6863;DHT22;3470;48.738;9.616;2022-12-07T04:24:33;2.00;99.90
6863;DHT22;3470;48.738;9.616;2022-12-07T04:26:59;2.00;99.90
6863;DHT22;3470;48.738;9.616;2022-12-07T04:29:25;2.00;99.90
6863;DHT22;3470;48.738;9.616;2022-12-07T04:31:51;1.90;99.90
6863;DHT22;3470;48.738;9.616;2022-12-07T04:34:17;1.90;99.90
6863;DHT22;3470;48.738;9.616;2022-12-07T04:36:44;1.90;99.90
6863;DHT22;3470;48.738;9.616;2022-12-07T04:39:30;1.80;99.90
6863;DHT22;3470;48.738;9.616;2022-12-07T04:41:57;1.80;99.90
6863;DHT22;3470;48.738;9.616;2022-12-07T04:44:24;1.70;99.90
6863;DHT22;3470;48.738;9.616;2022-12-07T04:46:51;1.70;99.90
6863;DHT22;3470;48.738;9.616;2022-12-07T04:49:17;1.70;99.90
6863;DHT22;3470;48.738;9.616;2022-12-07T04:51:44;1.60;99.90
6863;DHT22;3470;48.738;9.616;2022-12-07T04:54:10;1.60;99.90
6863;DHT22;3470;48.738;9.616;2022-12-07T04:56:35;1.60;99.90
6863;DHT22;3470;48.738;9.616;2022-12-07T04:59:01;1.60;99.90
6863;DHT22;3470;48.738;9.616;2022-12-07T05:01:27;1.50;99.90
6863;DHT22;3470;48.738;9.616;2022-12-07T05:03:53;1.40;99.90
6863;DHT22;3470;48.738;9.616;2022-12-07T05:06:19;1.30;99.90
6863;DHT22;3470;48.738;9.616;2022-12-07T05:08:45;1.20;99.90
6863;DHT22;3470;48.738;9.616;2022-12-07T05:11:11;1.20;99.90
6863;DHT22;3470;48.738;9.616;2022-12-07T05:14:00;1.20;99.90
6863;DHT22;3470;48.738;9.616;2022-12-07T05:16:26;1.30;99.90
6863;DHT22;3470;48.738;9.616;2022-12-07T05:18:51;1.30;99.90
6863;DHT22;3470;48.738;9.616;2022-12-07T05:21:17;1.30;99.90
6863;DHT22;3470;48.738;9.616;2022-12-07T05:23:43;1.30;99.90
6863;DHT22;3470;48.738;9.616;2022-12-07T05:26:08;1.30;99.90
6863;DHT22;3470;48.738;9.616;2022-12-07T05:28:34;1.30;99.90
6863;DHT22;3470;48.738;9.616;2022-12-07T05:30:59;1.30;99.90
6863;DHT22;3470;48.738;9.616;2022-12-07T05:33:25;1.30;99.90
6863;DHT22;3470;48.738;9.616;2022-12-07T05:35:51;1.30;99.90
6863;DHT22;3470;48.738;9.616;2022-12-07T05:38:16;1.30;99.90
6863;DHT22;3470;48.738;9.616;2022-12-07T05:40:42;1.30;99.90
6863;DHT22;3470;48.738;9.616;2022-12-07T05:43:07;1.30;99.90
6863;DHT22;3470;48.738;9.616;2022-12-07T05:45:33;1.40;99.90
6863;DHT22;3470;48.738;9.616;2022-12-07T05:47:58;1.30;99.90
6863;DHT22;3470;48.738;9.616;2022-12-07T05:50:24;1.20;99.90
6863;DHT22;3470;48.738;9.616;2022-12-07T05:52:50;1.20;99.90
6863;DHT22;3470;48.738;9.616;2022-12-07T05:55:15;1.20;99.90
6863;DHT22;3470;48.738;9.616;2022-12-07T05:57:41;1.30;99.90
6863;DHT22;3470;48.738;9.616;2022-12-07T06:00:26;1.30;99.90
6863;DHT22;3470;48.738;9.616;2022-12-07T06:02:52;1.40;99.90
6863;DHT22;3470;48.738;9.616;2022-12-07T06:05:17;1.40;99.90
6863;DHT22;3470;48.738;9.616;2022-12-07T06:07:43;1.40;99.90
6863;DHT22;3470;48.738;9.616;2022-12-07T06:10:09;1.30;99.90
6863;DHT22;3470;48.738;9.616;2022-12-07T06:12:35;1.30;99.90
6863;DHT22;3470;48.738;9.616;2022-12-07T06:15:00;1.20;99.90
6863;DHT22;3470;48.738;9.616;2022-12-07T06:17:26;1.10;99.90
6863;DHT22;3470;48.738;9.616;2022-12-07T06:19:52;1.10;99.90
6863;DHT22;3470;48.738;9.616;2022-12-07T06:22:18;1.10;99.90
6863;DHT22;3470;48.738;9.616;2022-12-07T06:24:44;1.10;99.90
6863;DHT22;3470;48.738;9.616;2022-12-07T06:27:09;1.10;99.90
6863;DHT22;3470;48.738;9.616;2022-12-07T06:29:35;1.10;99.90
6863;DHT22;3470;48.738;9.616;2022-12-07T06:32:02;1.10;99.90
6863;DHT22;3470;48.738;9.616;2022-12-07T06:34:28;1.10;99.90
6863;DHT22;3470;48.738;9.616;2022-12-07T06:36:53;1.30;99.90
6863;DHT22;3470;48.738;9.616;2022-12-07T06:39:28;1.20;99.90
6863;DHT22;3470;48.738;9.616;2022-12-07T06:41:54;1.20;99.90
6863;DHT22;3470;48.738;9.616;2022-12-07T06:44:20;1.20;99.90
6863;DHT22;3470;48.738;9.616;2022-12-07T06:46:47;1.20;99.90
6863;DHT22;3470;48.738;9.616;2022-12-07T06:49:15;1.30;99.90
6863;DHT22;3470;48.738;9.616;2022-12-07T06:51:42;1.30;99.90
6863;DHT22;3470;48.738;9.616;2022-12-07T06:54:09;1.20;99.90
6863;DHT22;3470;48.738;9.616;2022-12-07T06:56:35;1.30;99.90
6863;DHT22;3470;48.738;9.616;2022-12-07T06:59:01;1.30;99.90
6863;DHT22;3470;48.738;9.616;2022-12-07T07:01:26;1.30;99.90
6863;DHT22;3470;48.738;9.616;2022-12-07T07:03:52;1.30;99.90
6863;DHT22;3470;48.738;9.616;2022-12-07T07:06:18;1.30;99.90
6863;DHT22;3470;48.738;9.616;2022-12-07T07:08:43;1.40;99.90
6863;DHT22;3470;48.738;9.616;2022-12-07T07:11:09;1.50;99.90
6863;DHT22;3470;48.738;9.616;2022-12-07T07:13:35;1.60;99.90
6863;DHT22;3470;48.738;9.616;2022-12-07T07:16:01;1.60;99.90
6863;DHT22;3470;48.738;9.616;2022-12-07T07:18:27;1.60;99.90
6863;DHT22;3470;48.738;9.616;2022-12-07T07:20:53;1.60;99.90
6863;DHT22;3470;48.738;9.616;2022-12-07T07:23:20;1.70;99.90
6863;DHT22;3470;48.738;9.616;2022-12-07T07:25:46;1.70;99.90
6863;DHT22;3470;48.738;9.616;2022-12-07T07:28:12;1.70;99.90
6863;DHT22;3470;48.738;9.616;2022-12-07T07:30:37;1.70;99.90
6863;DHT22;3470;48.738;9.616;2022-12-07T07:33:04;1.80;99.90
6863;DHT22;3470;48.738;9.616;2022-12-07T07:35:31;1.70;99.90
6863;DHT22;3470;48.738;9.616;2022-12-07T07:37:57;1.80;99.90
6863;DHT22;3470;48.738;9.616;2022-12-07T07:40:22;1.80;99.90
6863;DHT22;3470;48.738;9.616;2022-12-07T07:42:52;1.80;99.90
6863;DHT22;3470;48.738;9.616;2022-12-07T07:45:19;1.80;99.90
6863;DHT22;3470;48.738;9.616;2022-12-07T07:47:45;1.80;99.90
6863;DHT22;3470;48.738;9.616;2022-12-07T07:50:11;1.90;99.90
6863;DHT22;3470;48.738;9.616;2022-12-07T07:52:37;1.90;99.90
6863;DHT22;3470;48.738;9.616;2022-12-07T07:55:03;1.90;99.90
6863;DHT22;3470;48.738;9.616;2022-12-07T07:57:29;1.80;99.90
6863;DHT22;3470;48.738;9.616;2022-12-07T07:59:54;1.90;99.90
6863;DHT22;3470;48.738;9.616;2022-12-07T08:02:20;1.80;99.90
6863;DHT22;3470;48.738;9.616;2022-12-07T08:04:46;1.90;99.90
6863;DHT22;3470;48.738;9.616;2022-12-07T08:07:12;1.90;99.90
6863;DHT22;3470;48.738;9.616;2022-12-07T08:09:38;1.90;99.90
6863;DHT22;3470;48.738;9.616;2022-12-07T08:12:04;1.90;99.90
6863;DHT22;3470;48.738;9.616;2022-12-07T08:14:30;2.00;99.90
6863;DHT22;3470;48.738;9.616;2022-12-07T08:16:56;2.00;99.90
6863;DHT22;3470;48.738;9.616;2022-12-07T08:19:21;2.00;99.90
6863;DHT22;3470;48.738;9.616;2022-12-07T08:21:47;2.10;99.90
6863;DHT22;3470;48.738;9.616;2022-12-07T08:24:13;2.00;99.90
6863;DHT22;3470;48.738;9.616;2022-12-07T08:26:39;2.10;99.90
6863;DHT22;3470;48.738;9.616;2022-12-07T08:29:05;2.20;99.90
6863;DHT22;3470;48.738;9.616;2022-12-07T08:31:30;2.30;99.90
6863;DHT22;3470;48.738;9.616;2022-12-07T08:33:56;2.30;99.90
6863;DHT22;3470;48.738;9.616;2022-12-07T08:36:22;2.40;99.90
6863;DHT22;3470;48.738;9.616;2022-12-07T08:38:49;2.40;99.90
6863;DHT22;3470;48.738;9.616;2022-12-07T08:41:15;2.40;99.90
6863;DHT22;3470;48.738;9.616;2022-12-07T08:43:41;2.40;99.90
6863;DHT22;3470;48.738;9.616;2022-12-07T08:48:33;2.60;99.90
6863;DHT22;3470;48.738;9.616;2022-12-07T08:51:01;2.50;99.90
6863;DHT22;3470;48.738;9.616;2022-12-07T08:53:28;2.60;99.90
6863;DHT22;3470;48.738;9.616;2022-12-07T08:55:54;2.60;99.90
6863;DHT22;3470;48.738;9.616;2022-12-07T08:58:21;2.60;99.90
6863;DHT22;3470;48.738;9.616;2022-12-07T09:00:46;2.60;99.90
6863;DHT22;3470;48.738;9.616;2022-12-07T09:03:12;2.60;99.90
6863;DHT22;3470;48.738;9.616;2022-12-07T09:05:37;2.60;99.90
6863;DHT22;3470;48.738;9.616;2022-12-07T09:08:03;2.70;99.90
6863;DHT22;3470;48.738;9.616;2022-12-07T09:10:29;2.70;99.90
6863;DHT22;3470;48.738;9.616;2022-12-07T09:12:55;2.80;99.90
6863;DHT22;3470;48.738;9.616;2022-12-07T09:15:20;2.90;99.90
6863;DHT22;3470;48.738;9.616;2022-12-07T09:17:46;2.90;99.90
6863;DHT22;3470;48.738;9.616;2022-12-07T09:20:12;2.90;99.90
6863;DHT22;3470;48.738;9.616;2022-12-07T09:22:38;2.90;99.90
6863;DHT22;3470;48.738;9.616;2022-12-07T09:25:04;3.00;99.90
6863;DHT22;3470;48.738;9.616;2022-12-07T09:27:30;3.10;99.90
6863;DHT22;3470;48.738;9.616;2022-12-07T09:29:55;3.10;99.90
6863;DHT22;3470;48.738;9.616;2022-12-07T09:32:22;3.20;99.90
6863;DHT22;3470;48.738;9.616;2022-12-07T09:34:48;3.20;99.90
6863;DHT22;3470;48.738;9.616;2022-12-07T09:37:14;3.20;99.90
6863;DHT22;3470;48.738;9.616;2022-12-07T09:39:40;3.20;99.90
6863;DHT22;3470;48.738;9.616;2022-12-07T09:42:07;3.20;99.90
6863;DHT22;3470;48.738;9.616;2022-12-07T09:44:33;3.30;99.90
6863;DHT22;3470;48.738;9.616;2022-12-07T09:47:00;3.30;99.90
6863;DHT22;3470;48.738;9.616;2022-12-07T09:49:29;3.40;99.90
6863;DHT22;3470;48.738;9.616;2022-12-07T09:54:36;3.50;99.90
6863;DHT22;3470;48.738;9.616;2022-12-07T09:57:05;3.60;99.90
6863;DHT22;3470;48.738;9.616;2022-12-07T09:59:30;3.50;99.90
6863;DHT22;3470;48.738;9.616;2022-12-07T10:02:23;3.60;99.90
6863;DHT22;3470;48.738;9.616;2022-12-07T10:04:50;3.70;99.90
6863;DHT22;3470;48.738;9.616;2022-12-07T10:07:15;3.80;99.90
6863;DHT22;3470;48.738;9.616;2022-12-07T10:09:41;4.00;99.90
6863;DHT22;3470;48.738;9.616;2022-12-07T10:12:10;3.90;99.90
6863;DHT22;3470;48.738;9.616;2022-12-07T10:15:00;4.00;99.90
6863;DHT22;3470;48.738;9.616;2022-12-07T10:20:15;4.10;99.90
6863;DHT22;3470;48.738;9.616;2022-12-07T10:25:32;4.20;99.90
6863;DHT22;3470;48.738;9.616;2022-12-07T10:28:18;4.40;99.90
6863;DHT22;3470;48.738;9.616;2022-12-07T10:31:00;4.50;99.90
6863;DHT22;3470;48.738;9.616;2022-12-07T10:33:48;4.60;99.90
6863;DHT22;3470;48.738;9.616;2022-12-07T10:36:34;4.60;99.90
6863;DHT22;3470;48.738;9.616;2022-12-07T13:02:54;4.30;99.90
6863;DHT22;3470;48.738;9.616;2022-12-07T13:05:22;4.20;99.90
6863;DHT22;3470;48.738;9.616;2022-12-07T13:10:39;4.20;99.90
6863;DHT22;3470;48.738;9.616;2022-12-07T13:15:40;4.00;99.90
6863;DHT22;3470;48.738;9.616;2022-12-07T13:18:35;4.10;99.90
6863;DHT22;3470;48.738;9.616;2022-12-07T13:23:36;4.00;99.90
6863;DHT22;3470;48.738;9.616;2022-12-07T13:29:16;4.00;99.90
6863;DHT22;3470;48.738;9.616;2022-12-07T13:31:47;4.00;99.90
6863;DHT22;3470;48.738;9.616;2022-12-07T13:37:01;3.90;99.90
6863;DHT22;3470;48.738;9.616;2022-12-07T13:39:28;3.90;99.90
6863;DHT22;3470;48.738;9.616;2022-12-07T13:41:58;3.90;99.90
6863;DHT22;3470;48.738;9.616;2022-12-07T13:44:26;3.90;99.90
6863;DHT22;3470;48.738;9.616;2022-12-07T13:47:05;3.90;99.90
6863;DHT22;3470;48.738;9.616;2022-12-07T13:49:36;3.90;99.90
6863;DHT22;3470;48.738;9.616;2022-12-07T13:52:20;4.00;99.90
6863;DHT22;3470;48.738;9.616;2022-12-07T13:54:54;4.10;99.90
6863;DHT22;3470;48.738;9.616;2022-12-07T13:57:21;4.20;99.90
6863;DHT22;3470;48.738;9.616;2022-12-07T13:59:47;4.30;99.90
6863;DHT22;3470;48.738;9.616;2022-12-07T14:02:28;4.40;99.90
6863;DHT22;3470;48.738;9.616;2022-12-07T14:05:22;4.40;99.90
6863;DHT22;3470;48.738;9.616;2022-12-07T14:08:03;4.40;99.90
6863;DHT22;3470;48.738;9.616;2022-12-07T14:10:30;4.30;99.90
6863;DHT22;3470;48.738;9.616;2022-12-07T14:12:57;4.30;99.90
6863;DHT22;3470;48.738;9.616;2022-12-07T14:15:27;4.40;99.90
6863;DHT22;3470;48.738;9.616;2022-12-07T14:17:54;4.40;99.90
6863;DHT22;3470;48.738;9.616;2022-12-07T14:20:37;4.40;99.90
6863;DHT22;3470;48.738;9.616;2022-12-07T14:23:03;4.40;99.90
6863;DHT22;3470;48.738;9.616;2022-12-07T14:25:53;4.30;99.90
6863;DHT22;3470;48.738;9.616;2022-12-07T14:28:31;4.30;99.90
6863;DHT22;3470;48.738;9.616;2022-12-07T14:30:57;4.40;99.90
6863;DHT22;3470;48.738;9.616;2022-12-07T14:33:24;4.40;99.90
6863;DHT22;3470;48.738;9.616;2022-12-07T14:35:50;4.40;99.90
6863;DHT22;3470;48.738;9.616;2022-12-07T14:38:20;4.40;99.90
6863;DHT22;3470;48.738;9.616;2022-12-07T14:40:46;4.40;99.90
6863;DHT22;3470;48.738;9.616;2022-12-07T14:43:12;4.30;99.90
6863;DHT22;3470;48.738;9.616;2022-12-07T14:45:39;4.30;99.90
6863;DHT22;3470;48.738;9.616;2022-12-07T14:48:11;4.30;99.90
6863;DHT22;3470;48.738;9.616;2022-12-07T14:50:42;4.30;99.90
6863;DHT22;3470;48.738;9.616;2022-12-07T14:53:17;4.30;99.90
6863;DHT22;3470;48.738;9.616;2022-12-07T14:55:43;4.30;99.90
6863;DHT22;3470;48.738;9.616;2022-12-07T14:58:13;4.20;99.90
6863;DHT22;3470;48.738;9.616;2022-12-07T15:00:39;4.10;99.90
6863;DHT22;3470;48.738;9.616;2022-12-07T15:03:04;4.20;99.90
6863;DHT22;3470;48.738;9.616;2022-12-07T15:05:30;4.10;99.90
6863;DHT22;3470;48.738;9.616;2022-12-07T15:07:56;4.10;99.90
6863;DHT22;3470;48.738;9.616;2022-12-07T15:10:24;4.00;99.90
6863;DHT22;3470;48.738;9.616;2022-12-07T15:12:54;4.00;99.90
6863;DHT22;3470;48.738;9.616;2022-12-07T15:15:20;4.00;99.90
6863;DHT22;3470;48.738;9.616;2022-12-07T15:17:45;4.00;99.90
6863;DHT22;3470;48.738;9.616;2022-12-07T15:20:13;3.90;99.90
6863;DHT22;3470;48.738;9.616;2022-12-07T15:22:39;3.80;99.90
6863;DHT22;3470;48.738;9.616;2022-12-07T15:25:05;3.80;99.90
6863;DHT22;3470;48.738;9.616;2022-12-07T15:27:31;3.70;99.90
6863;DHT22;3470;48.738;9.616;2022-12-07T15:29:57;3.60;99.90
6863;DHT22;3470;48.738;9.616;2022-12-07T15:32:22;3.60;99.90
6863;DHT22;3470;48.738;9.616;2022-12-07T15:34:48;3.50;99.90
6863;DHT22;3470;48.738;9.616;2022-12-07T15:37:15;3.40;99.90
6863;DHT22;3470;48.738;9.616;2022-12-07T15:39:41;3.40;99.90
6863;DHT22;3470;48.738;9.616;2022-12-07T15:42:06;3.40;99.90
6863;DHT22;3470;48.738;9.616;2022-12-07T15:44:32;3.40;99.90
6863;DHT22;3470;48.738;9.616;2022-12-07T15:47:16;3.40;99.90
6863;DHT22;3470;48.738;9.616;2022-12-07T15:49:42;3.20;99.90
6863;DHT22;3470;48.738;9.616;2022-12-07T15:52:08;3.20;99.90
6863;DHT22;3470;48.738;9.616;2022-12-07T15:54:34;3.20;99.90
6863;DHT22;3470;48.738;9.616;2022-12-07T15:57:00;3.10;99.90
6863;DHT22;3470;48.738;9.616;2022-12-07T15:59:27;3.10;99.90
6863;DHT22;3470;48.738;9.616;2022-12-07T16:01:53;3.00;99.90
6863;DHT22;3470;48.738;9.616;2022-12-07T16:04:19;3.00;99.90
6863;DHT22;3470;48.738;9.616;2022-12-07T16:06:44;3.10;99.90
6863;DHT22;3470;48.738;9.616;2022-12-07T16:09:10;3.20;99.90
6863;DHT22;3470;48.738;9.616;2022-12-07T16:11:35;3.20;99.90
6863;DHT22;3470;48.738;9.616;2022-12-07T16:14:01;3.10;99.90
6863;DHT22;3470;48.738;9.616;2022-12-07T16:16:27;3.10;99.90
6863;DHT22;3470;48.738;9.616;2022-12-07T16:18:53;3.10;99.90
6863;DHT22;3470;48.738;9.616;2022-12-07T16:21:19;3.10;99.90
6863;DHT22;3470;48.738;9.616;2022-12-07T16:23:45;3.00;99.90
6863;DHT22;3470;48.738;9.616;2022-12-07T16:26:13;3.00;99.90
6863;DHT22;3470;48.738;9.616;2022-12-07T16:28:39;3.00;99.90
6863;DHT22;3470;48.738;9.616;2022-12-07T16:31:08;2.90;99.90
6863;DHT22;3470;48.738;9.616;2022-12-07T16:33:36;3.00;99.90
6863;DHT22;3470;48.738;9.616;2022-12-07T16:36:03;3.00;99.90
6863;DHT22;3470;48.738;9.616;2022-12-07T16:38:29;3.00;99.90
6863;DHT22;3470;48.738;9.616;2022-12-07T16:40:55;3.00;99.90
6863;DHT22;3470;48.738;9.616;2022-12-07T16:43:20;2.90;99.90
6863;DHT22;3470;48.738;9.616;2022-12-07T16:45:47;3.00;99.90
6863;DHT22;3470;48.738;9.616;2022-12-07T16:48:14;3.00;99.90
6863;DHT22;3470;48.738;9.616;2022-12-07T16:50:41;3.00;99.90
6863;DHT22;3470;48.738;9.616;2022-12-07T16:53:10;3.00;99.90
6863;DHT22;3470;48.738;9.616;2022-12-07T16:55:40;3.10;99.90
6863;DHT22;3470;48.738;9.616;2022-12-07T16:58:07;3.10;99.90
6863;DHT22;3470;48.738;9.616;2022-12-07T17:00:33;3.10;99.90
6863;DHT22;3470;48.738;9.616;2022-12-07T17:02:59;3.10;99.90
6863;DHT22;3470;48.738;9.616;2022-12-07T17:05:26;3.10;99.90
6863;DHT22;3470;48.738;9.616;2022-12-07T17:07:53;3.10;99.90
6863;DHT22;3470;48.738;9.616;2022-12-07T17:10:19;3.10;99.90
6863;DHT22;3470;48.738;9.616;2022-12-07T17:12:45;3.10;99.90
6863;DHT22;3470;48.738;9.616;2022-12-07T17:15:11;3.10;99.90
6863;DHT22;3470;48.738;9.616;2022-12-07T17:17:44;3.10;99.90
6863;DHT22;3470;48.738;9.616;2022-12-07T17:20:10;3.10;99.90
6863;DHT22;3470;48.738;9.616;2022-12-07T17:22:35;3.10;99.90
6863;DHT22;3470;48.738;9.616;2022-12-07T17:25:02;3.10;99.90
6863;DHT22;3470;48.738;9.616;2022-12-07T17:27:27;3.10;99.90
6863;DHT22;3470;48.738;9.616;2022-12-07T17:29:53;3.10;99.90
6863;DHT22;3470;48.738;9.616;2022-12-07T17:32:19;3.10;99.90
6863;DHT22;3470;48.738;9.616;2022-12-07T17:34:44;3.10;99.90
6863;DHT22;3470;48.738;9.616;2022-12-07T17:37:10;3.00;99.90
6863;DHT22;3470;48.738;9.616;2022-12-07T17:39:35;3.00;99.90
6863;DHT22;3470;48.738;9.616;2022-12-07T17:42:01;3.00;99.90
6863;DHT22;3470;48.738;9.616;2022-12-07T17:44:45;2.90;99.90
6863;DHT22;3470;48.738;9.616;2022-12-07T17:47:10;2.80;99.90
6863;DHT22;3470;48.738;9.616;2022-12-07T17:49:36;2.70;99.90
6863;DHT22;3470;48.738;9.616;2022-12-07T17:52:02;2.70;99.90
6863;DHT22;3470;48.738;9.616;2022-12-07T17:54:46;2.60;99.90
6863;DHT22;3470;48.738;9.616;2022-12-07T17:57:11;2.50;99.90
6863;DHT22;3470;48.738;9.616;2022-12-07T17:59:37;2.50;99.90
6863;DHT22;3470;48.738;9.616;2022-12-07T18:02:03;2.40;99.90
6863;DHT22;3470;48.738;9.616;2022-12-07T18:04:29;2.40;99.90
6863;DHT22;3470;48.738;9.616;2022-12-07T18:06:54;2.40;99.90
6863;DHT22;3470;48.738;9.616;2022-12-07T18:09:20;2.40;99.90
6863;DHT22;3470;48.738;9.616;2022-12-07T18:11:47;2.40;99.90
6863;DHT22;3470;48.738;9.616;2022-12-07T18:14:13;2.40;99.90
6863;DHT22;3470;48.738;9.616;2022-12-07T18:16:39;2.40;99.90
6863;DHT22;3470;48.738;9.616;2022-12-07T18:19:06;2.50;99.90
6863;DHT22;3470;48.738;9.616;2022-12-07T18:21:32;2.50;99.90
6863;DHT22;3470;48.738;9.616;2022-12-07T18:24:00;2.40;99.90
6863;DHT22;3470;48.738;9.616;2022-12-07T18:26:28;2.40;99.90
6863;DHT22;3470;48.738;9.616;2022-12-07T18:28:54;2.40;99.90
6863;DHT22;3470;48.738;9.616;2022-12-07T18:31:20;2.40;99.90
6863;DHT22;3470;48.738;9.616;2022-12-07T18:33:46;2.40;99.90
6863;DHT22;3470;48.738;9.616;2022-12-07T18:36:13;2.40;99.90
6863;DHT22;3470;48.738;9.616;2022-12-07T18:38:39;2.40;99.90
6863;DHT22;3470;48.738;9.616;2022-12-07T18:41:11;2.30;99.90
6863;DHT22;3470;48.738;9.616;2022-12-07T18:43:37;2.30;99.90
6863;DHT22;3470;48.738;9.616;2022-12-07T18:46:14;2.30;99.90
6863;DHT22;3470;48.738;9.616;2022-12-07T18:48:40;2.30;99.90
6863;DHT22;3470;48.738;9.616;2022-12-07T18:51:07;2.40;99.90
6863;DHT22;3470;48.738;9.616;2022-12-07T18:53:34;2.40;99.90
6863;DHT22;3470;48.738;9.616;2022-12-07T18:58:30;2.40;99.90
6863;DHT22;3470;48.738;9.616;2022-12-07T19:00:56;2.40;99.90
6863;DHT22;3470;48.738;9.616;2022-12-07T19:03:22;2.40;99.90
6863;DHT22;3470;48.738;9.616;2022-12-07T19:05:48;2.40;99.90
6863;DHT22;3470;48.738;9.616;2022-12-07T19:08:14;2.40;99.90
6863;DHT22;3470;48.738;9.616;2022-12-07T19:10:39;2.40;99.90
6863;DHT22;3470;48.738;9.616;2022-12-07T19:13:06;2.40;99.90
6863;DHT22;3470;48.738;9.616;2022-12-07T19:15:32;2.30;99.90
6863;DHT22;3470;48.738;9.616;2022-12-07T19:17:57;2.40;99.90
6863;DHT22;3470;48.738;9.616;2022-12-07T19:20:23;2.40;99.90
6863;DHT22;3470;48.738;9.616;2022-12-07T19:22:49;2.30;99.90
6863;DHT22;3470;48.738;9.616;2022-12-07T19:25:14;2.30;99.90
6863;DHT22;3470;48.738;9.616;2022-12-07T19:27:40;2.30;99.90
6863;DHT22;3470;48.738;9.616;2022-12-07T19:30:07;2.30;99.90
6863;DHT22;3470;48.738;9.616;2022-12-07T19:32:35;2.30;99.90
6863;DHT22;3470;48.738;9.616;2022-12-07T19:35:03;2.20;99.90
6863;DHT22;3470;48.738;9.616;2022-12-07T19:37:29;2.20;99.90
6863;DHT22;3470;48.738;9.616;2022-12-07T19:39:55;2.20;99.90
6863;DHT22;3470;48.738;9.616;2022-12-07T19:42:21;2.20;99.90
6863;DHT22;3470;48.738;9.616;2022-12-07T19:44:47;2.10;99.90